Tropical Cyclones
[Index]
Main Index Home Page Stock Weather Photos Extreme Storms Discussion Storm News and Storm Chasing Reports Tropical Cyclones / Hurricanes / Typhoons Weather Data and Links Wild Fires / Bushfires Weather Observation Techniques Weather Picture Catalogue Tornado Pictures and Reports Stock Video Footage and DVDs for sale
Season 2015-2016 Tropical Cyclone FANTALA Track Map
Season 2015-2016 Summaries (Operational Data): [AU] [SIO] [SPAC] [SH]
<<- Previous TC | 2015-2016 Season | Next TC ->>

click for intensity scale information  Lat/long Grid: Show Hide

 Date Labels: Show Hide

Operational Tropical Cyclone Data : JTWC Advisories

Name: FANTALA
Number: 1619

09 Apr 2016 06:00 UTC to 28 Apr 2016 00:00 UTC

    date/time    lat    long     hPa   cat  kts
2016-04-09 06   12.4    79.0    1010         15          
2016-04-09 12   12.7    78.0    1010         15          
2016-04-09 18   12.1    77.5    1010         15          
2016-04-10 00   12.1    76.5    1010         15          
2016-04-10 06   12.1    75.6    1010         15          
2016-04-10 12   11.8    75.0    1006         20          
2016-04-10 18   12.2    74.2    1007         20          
2016-04-11 00   12.5    73.4    1007         20          
2016-04-11 06   12.7    72.8    1004         25          
2016-04-11 12   12.8    72.2    1000         30          
2016-04-11 18   12.9    71.4     999    1    35          
2016-04-12 00   12.9    70.5     989    1    45          
2016-04-12 06   12.9    69.7     978    2    60          
2016-04-12 12   12.9    69.2     978    2    60          
2016-04-12 18   12.9    68.7     974    3    65          
2016-04-13 00   12.9    67.7     974    3    65          
2016-04-13 06   12.8    66.7     963    3    80          
2016-04-13 12   12.7    65.9     959    3    85          
2016-04-13 18   12.7    65.0     959    3    85          
2016-04-14 00   12.6    64.2     952    4    95          
2016-04-14 06   12.5    63.4     944    4   105          
2016-04-14 12   12.4    62.5     948    4   100          
2016-04-14 18   12.3    61.6     948    4   100          
2016-04-15 00   12.3    60.7     952    4    95          
2016-04-15 06   12.3    59.7     944    4   105          
2016-04-15 12   12.4    58.7     933    5   120          
2016-04-15 18   12.4    58.0     926    5   130          
2016-04-16 00   12.4    57.1     926    5   130          
2016-04-16 06   12.3    56.3     926    5   130          
2016-04-16 12   12.0    55.3     926    5   130          
2016-04-16 18   11.5    54.4     922    5   135          
2016-04-17 00   11.1    53.5     922    5   135          
2016-04-17 06   10.6    52.6     922    5   135          
2016-04-17 12   10.3    51.7     918    5   140          
2016-04-17 18    9.8    50.8     911    5   150          
2016-04-18 00    9.4    50.1     911    5   150          
2016-04-18 06    9.3    49.7     911    5   150          
2016-04-18 12    9.3    49.5     914    5   145          
2016-04-18 18    9.3    49.3     918    5   140          
2016-04-19 00    9.2    49.6     933    5   120          
2016-04-19 06    9.3    50.0     944    4   105          
2016-04-19 12    9.5    50.6     952    4    95          
2016-04-19 18    9.7    51.2     959    3    85          
2016-04-20 00   10.0    52.0     952    4    95          
2016-04-20 06   10.5    52.7     944    4   105          
2016-04-20 12   10.9    53.5     944    4   105          
2016-04-20 18   11.5    54.1     944    4   105          
2016-04-21 00   12.0    54.9     944    4   105          
2016-04-21 06   12.3    55.6     956    4    90          
2016-04-21 12   12.7    56.3     963    3    80          
2016-04-21 18   12.9    56.6     963    3    80          
2016-04-22 00   13.1    57.0     956    4    90          
2016-04-22 06   13.1    57.2     956    4    90          
2016-04-22 12   13.0    57.3     956    4    90          
2016-04-22 18   12.9    57.3     963    3    80          
2016-04-23 00   12.7    56.9     970    3    70          
2016-04-23 06   12.3    56.1     978    2    60          
2016-04-23 12   12.1    55.5     985    2    50          
2016-04-23 18   11.6    54.6     993    1    40          
2016-04-24 00   10.9    53.7     996    1    35          
2016-04-24 06   10.5    52.9    1000         30          
2016-04-24 12   10.0    52.0    1004         25          
2016-04-24 18    9.3    50.9    1006         25          
2016-04-25 00    8.3    50.1    1004         25          
2016-04-25 06    7.6    49.1    1004         25          
2016-04-25 12    7.2    48.2    1007         25          
2016-04-25 18    7.1    47.2    1004         25          
2016-04-26 00    6.8    46.5    1004         25          
2016-04-26 06    6.7    45.7    1004         25          
2016-04-26 12    6.5    44.6    1004         25          
2016-04-27 00    6.0    43.0                             
2016-04-27 12    5.0    42.0                             
2016-04-28 00    6.7    40.4                             
Winds are 10-min average.

Tropical cyclone tracks developed by Michael Bath using operational warnings and advisories and Google Maps.


[Australian Severe Weather index] [Copyright Notice] [Email Contacts] [Search This Site] [Privacy Policy]
Document: tropical_cyclone_fantala.htm Updated: 2 May 2017